sensor_id;sensor_type;location;lat;lon;timestamp;P1;durP1;ratioP1;P2;durP2;ratioP2
45909;SDS011;31622;55.416;37.840;2022-12-07T00:01:14;1.90;;;1.00;;
45909;SDS011;31622;55.416;37.840;2022-12-07T00:03:44;1.55;;;0.90;;
45909;SDS011;31622;55.416;37.840;2022-12-07T00:06:11;1.83;;;1.20;;
45909;SDS011;31622;55.416;37.840;2022-12-07T00:08:38;1.55;;;0.98;;
45909;SDS011;31622;55.416;37.840;2022-12-07T00:11:05;2.00;;;1.00;;
45909;SDS011;31622;55.416;37.840;2022-12-07T00:13:33;2.00;;;1.02;;
45909;SDS011;31622;55.416;37.840;2022-12-07T00:16:04;2.78;;;1.20;;
45909;SDS011;31622;55.416;37.840;2022-12-07T00:18:31;1.50;;;0.90;;
45909;SDS011;31622;55.416;37.840;2022-12-07T00:21:04;1.98;;;1.10;;
45909;SDS011;31622;55.416;37.840;2022-12-07T00:23:50;1.60;;;1.00;;
45909;SDS011;31622;55.416;37.840;2022-12-07T00:26:24;1.25;;;0.90;;
45909;SDS011;31622;55.416;37.840;2022-12-07T00:28:54;1.73;;;1.10;;
45909;SDS011;31622;55.416;37.840;2022-12-07T00:31:22;2.00;;;1.20;;
45909;SDS011;31622;55.416;37.840;2022-12-07T00:33:49;1.77;;;1.10;;
45909;SDS011;31622;55.416;37.840;2022-12-07T00:36:16;2.72;;;1.38;;
45909;SDS011;31622;55.416;37.840;2022-12-07T00:38:44;2.08;;;0.93;;
45909;SDS011;31622;55.416;37.840;2022-12-07T00:41:11;2.55;;;1.10;;
45909;SDS011;31622;55.416;37.840;2022-12-07T00:43:38;1.83;;;1.08;;
45909;SDS011;31622;55.416;37.840;2022-12-07T00:46:05;2.05;;;1.10;;
45909;SDS011;31622;55.416;37.840;2022-12-07T00:48:30;2.42;;;1.20;;
45909;SDS011;31622;55.416;37.840;2022-12-07T00:50:56;1.70;;;0.90;;
45909;SDS011;31622;55.416;37.840;2022-12-07T00:53:23;4.63;;;1.15;;
45909;SDS011;31622;55.416;37.840;2022-12-07T00:55:48;1.67;;;1.10;;
45909;SDS011;31622;55.416;37.840;2022-12-07T00:58:14;1.60;;;0.88;;
45909;SDS011;31622;55.416;37.840;2022-12-07T01:00:41;1.75;;;1.17;;
45909;SDS011;31622;55.416;37.840;2022-12-07T01:03:08;1.70;;;1.00;;
45909;SDS011;31622;55.416;37.840;2022-12-07T01:05:35;2.17;;;1.20;;
45909;SDS011;31622;55.416;37.840;2022-12-07T01:08:01;1.35;;;0.75;;
45909;SDS011;31622;55.416;37.840;2022-12-07T01:10:27;2.17;;;1.20;;
45909;SDS011;31622;55.416;37.840;2022-12-07T01:12:53;1.85;;;1.08;;
45909;SDS011;31622;55.416;37.840;2022-12-07T01:15:19;1.60;;;1.10;;
45909;SDS011;31622;55.416;37.840;2022-12-07T01:17:45;1.95;;;1.08;;
45909;SDS011;31622;55.416;37.840;2022-12-07T01:20:10;2.05;;;1.20;;
45909;SDS011;31622;55.416;37.840;2022-12-07T01:22:37;1.40;;;0.90;;
45909;SDS011;31622;55.416;37.840;2022-12-07T01:25:04;1.73;;;1.10;;
45909;SDS011;31622;55.416;37.840;2022-12-07T01:27:32;1.92;;;0.93;;
45909;SDS011;31622;55.416;37.840;2022-12-07T01:29:58;3.28;;;1.23;;
45909;SDS011;31622;55.416;37.840;2022-12-07T01:32:24;2.25;;;1.08;;
45909;SDS011;31622;55.416;37.840;2022-12-07T01:34:50;2.10;;;1.10;;
45909;SDS011;31622;55.416;37.840;2022-12-07T01:37:15;2.25;;;1.05;;
45909;SDS011;31622;55.416;37.840;2022-12-07T01:39:41;3.28;;;1.10;;
45909;SDS011;31622;55.416;37.840;2022-12-07T01:42:10;2.05;;;1.10;;
45909;SDS011;31622;55.416;37.840;2022-12-07T01:47:39;1.95;;;1.08;;
45909;SDS011;31622;55.416;37.840;2022-12-07T01:50:06;2.20;;;1.00;;
45909;SDS011;31622;55.416;37.840;2022-12-07T01:52:32;1.70;;;1.08;;
45909;SDS011;31622;55.416;37.840;2022-12-07T01:55:04;1.92;;;1.20;;
45909;SDS011;31622;55.416;37.840;2022-12-07T01:57:33;1.85;;;1.10;;
45909;SDS011;31622;55.416;37.840;2022-12-07T02:00:00;2.33;;;0.90;;
45909;SDS011;31622;55.416;37.840;2022-12-07T02:02:39;1.70;;;1.00;;
45909;SDS011;31622;55.416;37.840;2022-12-07T02:05:27;2.30;;;1.15;;
45909;SDS011;31622;55.416;37.840;2022-12-07T02:07:54;2.65;;;1.40;;
45909;SDS011;31622;55.416;37.840;2022-12-07T02:10:22;2.60;;;1.10;;
45909;SDS011;31622;55.416;37.840;2022-12-07T02:12:50;3.03;;;1.48;;
45909;SDS011;31622;55.416;37.840;2022-12-07T02:15:20;2.03;;;1.05;;
45909;SDS011;31622;55.416;37.840;2022-12-07T02:17:50;2.35;;;1.10;;
45909;SDS011;31622;55.416;37.840;2022-12-07T02:23:07;1.77;;;1.05;;
45909;SDS011;31622;55.416;37.840;2022-12-07T02:28:21;2.22;;;1.30;;
45909;SDS011;31622;55.416;37.840;2022-12-07T02:31:06;2.83;;;1.20;;
45909;SDS011;31622;55.416;37.840;2022-12-07T02:33:46;2.45;;;1.33;;
45909;SDS011;31622;55.416;37.840;2022-12-07T02:36:43;3.55;;;1.60;;
45909;SDS011;31622;55.416;37.840;2022-12-07T02:39:17;1.90;;;1.40;;
45909;SDS011;31622;55.416;37.840;2022-12-07T02:41:51;2.97;;;1.40;;
45909;SDS011;31622;55.416;37.840;2022-12-07T02:44:20;2.97;;;1.63;;
45909;SDS011;31622;55.416;37.840;2022-12-07T02:46:53;3.10;;;1.40;;
45909;SDS011;31622;55.416;37.840;2022-12-07T02:49:23;2.25;;;1.35;;
45909;SDS011;31622;55.416;37.840;2022-12-07T02:51:50;2.38;;;1.05;;
45909;SDS011;31622;55.416;37.840;2022-12-07T02:54:18;4.35;;;1.13;;
45909;SDS011;31622;55.416;37.840;2022-12-07T02:56:48;1.95;;;1.08;;
45909;SDS011;31622;55.416;37.840;2022-12-07T03:01:55;2.92;;;1.30;;
45909;SDS011;31622;55.416;37.840;2022-12-07T03:13:05;1.73;;;1.17;;
45909;SDS011;31622;55.416;37.840;2022-12-07T03:15:46;2.80;;;0.90;;
45909;SDS011;31622;55.416;37.840;2022-12-07T03:18:18;2.90;;;1.15;;
45909;SDS011;31622;55.416;37.840;2022-12-07T03:20:45;2.30;;;1.20;;
45909;SDS011;31622;55.416;37.840;2022-12-07T03:23:12;1.85;;;0.88;;
45909;SDS011;31622;55.416;37.840;2022-12-07T03:25:40;2.78;;;1.23;;
45909;SDS011;31622;55.416;37.840;2022-12-07T03:28:09;2.20;;;1.15;;
45909;SDS011;31622;55.416;37.840;2022-12-07T03:30:37;2.33;;;1.10;;
45909;SDS011;31622;55.416;37.840;2022-12-07T03:33:12;2.15;;;1.30;;
45909;SDS011;31622;55.416;37.840;2022-12-07T03:35:42;2.35;;;1.20;;
45909;SDS011;31622;55.416;37.840;2022-12-07T03:38:28;2.53;;;1.10;;
45909;SDS011;31622;55.416;37.840;2022-12-07T03:43:32;2.83;;;1.17;;
45909;SDS011;31622;55.416;37.840;2022-12-07T03:51:54;2.33;;;1.08;;
45909;SDS011;31622;55.416;37.840;2022-12-07T03:54:36;2.35;;;1.10;;
45909;SDS011;31622;55.416;37.840;2022-12-07T03:57:05;3.63;;;1.15;;
45909;SDS011;31622;55.416;37.840;2022-12-07T03:59:32;3.88;;;1.30;;
45909;SDS011;31622;55.416;37.840;2022-12-07T04:02:01;2.95;;;1.10;;
45909;SDS011;31622;55.416;37.840;2022-12-07T04:04:28;3.13;;;1.30;;
45909;SDS011;31622;55.416;37.840;2022-12-07T04:06:53;2.72;;;1.20;;
45909;SDS011;31622;55.416;37.840;2022-12-07T04:09:19;1.92;;;1.20;;
45909;SDS011;31622;55.416;37.840;2022-12-07T04:11:45;4.10;;;1.27;;
45909;SDS011;31622;55.416;37.840;2022-12-07T04:14:11;2.95;;;1.23;;
45909;SDS011;31622;55.416;37.840;2022-12-07T04:19:16;2.58;;;1.25;;
45909;SDS011;31622;55.416;37.840;2022-12-07T04:21:43;3.55;;;1.17;;
45909;SDS011;31622;55.416;37.840;2022-12-07T04:24:09;2.58;;;1.30;;
45909;SDS011;31622;55.416;37.840;2022-12-07T04:26:36;2.63;;;1.17;;
45909;SDS011;31622;55.416;37.840;2022-12-07T04:29:02;3.30;;;1.30;;
45909;SDS011;31622;55.416;37.840;2022-12-07T04:31:27;2.72;;;1.25;;
45909;SDS011;31622;55.416;37.840;2022-12-07T04:33:53;3.15;;;1.25;;
45909;SDS011;31622;55.416;37.840;2022-12-07T04:36:19;2.50;;;1.27;;
45909;SDS011;31622;55.416;37.840;2022-12-07T04:38:45;3.75;;;1.50;;
45909;SDS011;31622;55.416;37.840;2022-12-07T04:41:11;4.13;;;1.75;;
45909;SDS011;31622;55.416;37.840;2022-12-07T04:43:37;2.67;;;1.35;;
45909;SDS011;31622;55.416;37.840;2022-12-07T04:46:03;2.83;;;1.48;;
45909;SDS011;31622;55.416;37.840;2022-12-07T04:48:29;2.63;;;1.48;;
45909;SDS011;31622;55.416;37.840;2022-12-07T04:50:54;4.75;;;1.70;;
45909;SDS011;31622;55.416;37.840;2022-12-07T04:53:20;2.35;;;1.48;;
45909;SDS011;31622;55.416;37.840;2022-12-07T04:55:46;3.78;;;1.50;;
45909;SDS011;31622;55.416;37.840;2022-12-07T04:58:12;2.25;;;1.40;;
45909;SDS011;31622;55.416;37.840;2022-12-07T05:00:38;10.68;;;2.05;;
45909;SDS011;31622;55.416;37.840;2022-12-07T05:03:04;2.95;;;1.35;;
45909;SDS011;31622;55.416;37.840;2022-12-07T05:05:29;10.30;;;2.47;;
45909;SDS011;31622;55.416;37.840;2022-12-07T05:07:55;4.40;;;1.90;;
45909;SDS011;31622;55.416;37.840;2022-12-07T05:10:21;2.40;;;1.52;;
45909;SDS011;31622;55.416;37.840;2022-12-07T05:12:46;3.85;;;1.60;;
45909;SDS011;31622;55.416;37.840;2022-12-07T05:15:13;2.67;;;1.50;;
45909;SDS011;31622;55.416;37.840;2022-12-07T05:17:40;3.88;;;1.42;;
45909;SDS011;31622;55.416;37.840;2022-12-07T05:20:06;3.17;;;1.50;;
45909;SDS011;31622;55.416;37.840;2022-12-07T05:22:32;4.10;;;1.45;;
45909;SDS011;31622;55.416;37.840;2022-12-07T05:24:57;4.47;;;1.83;;
45909;SDS011;31622;55.416;37.840;2022-12-07T05:27:23;4.72;;;2.15;;
45909;SDS011;31622;55.416;37.840;2022-12-07T05:29:52;5.63;;;2.00;;
45909;SDS011;31622;55.416;37.840;2022-12-07T05:32:18;3.10;;;1.60;;
45909;SDS011;31622;55.416;37.840;2022-12-07T05:34:43;5.03;;;1.95;;
45909;SDS011;31622;55.416;37.840;2022-12-07T05:37:09;6.30;;;1.95;;
45909;SDS011;31622;55.416;37.840;2022-12-07T05:39:35;3.75;;;1.70;;
45909;SDS011;31622;55.416;37.840;2022-12-07T05:42:00;4.07;;;2.00;;
45909;SDS011;31622;55.416;37.840;2022-12-07T05:44:38;3.85;;;1.95;;
45909;SDS011;31622;55.416;37.840;2022-12-07T05:47:09;3.88;;;1.83;;
45909;SDS011;31622;55.416;37.840;2022-12-07T05:49:35;4.22;;;1.70;;
45909;SDS011;31622;55.416;37.840;2022-12-07T05:52:01;6.50;;;2.67;;
45909;SDS011;31622;55.416;37.840;2022-12-07T05:54:27;5.22;;;3.03;;
45909;SDS011;31622;55.416;37.840;2022-12-07T05:56:52;5.20;;;2.90;;
45909;SDS011;31622;55.416;37.840;2022-12-07T05:59:18;5.25;;;3.17;;
45909;SDS011;31622;55.416;37.840;2022-12-07T06:01:59;5.78;;;3.70;;
45909;SDS011;31622;55.416;37.840;2022-12-07T06:04:28;9.88;;;3.63;;
45909;SDS011;31622;55.416;37.840;2022-12-07T06:06:56;6.43;;;3.75;;
45909;SDS011;31622;55.416;37.840;2022-12-07T06:09:22;7.53;;;4.07;;
45909;SDS011;31622;55.416;37.840;2022-12-07T06:11:49;11.82;;;4.72;;
45909;SDS011;31622;55.416;37.840;2022-12-07T06:14:33;7.53;;;4.15;;
45909;SDS011;31622;55.416;37.840;2022-12-07T06:16:59;9.82;;;4.30;;
45909;SDS011;31622;55.416;37.840;2022-12-07T06:19:25;9.07;;;4.30;;
45909;SDS011;31622;55.416;37.840;2022-12-07T06:21:51;8.95;;;4.47;;
45909;SDS011;31622;55.416;37.840;2022-12-07T06:24:16;12.23;;;4.38;;
45909;SDS011;31622;55.416;37.840;2022-12-07T06:26:43;13.02;;;4.50;;
45909;SDS011;31622;55.416;37.840;2022-12-07T06:29:09;13.15;;;4.20;;
45909;SDS011;31622;55.416;37.840;2022-12-07T06:31:36;7.97;;;4.20;;
45909;SDS011;31622;55.416;37.840;2022-12-07T06:34:03;7.68;;;4.03;;
45909;SDS011;31622;55.416;37.840;2022-12-07T06:36:30;8.70;;;4.30;;
45909;SDS011;31622;55.416;37.840;2022-12-07T06:38:55;7.80;;;3.72;;
45909;SDS011;31622;55.416;37.840;2022-12-07T06:41:21;23.02;;;5.55;;
45909;SDS011;31622;55.416;37.840;2022-12-07T06:43:47;8.98;;;3.92;;
45909;SDS011;31622;55.416;37.840;2022-12-07T06:46:13;5.18;;;3.30;;
45909;SDS011;31622;55.416;37.840;2022-12-07T06:48:39;6.22;;;3.33;;
45909;SDS011;31622;55.416;37.840;2022-12-07T06:51:05;6.07;;;2.83;;
45909;SDS011;31622;55.416;37.840;2022-12-07T06:53:31;8.80;;;3.20;;
45909;SDS011;31622;55.416;37.840;2022-12-07T06:55:57;12.25;;;3.40;;
45909;SDS011;31622;55.416;37.840;2022-12-07T06:58:23;7.47;;;3.25;;
45909;SDS011;31622;55.416;37.840;2022-12-07T07:00:48;4.80;;;2.92;;
45909;SDS011;31622;55.416;37.840;2022-12-07T07:03:15;5.03;;;2.92;;
45909;SDS011;31622;55.416;37.840;2022-12-07T07:05:41;6.63;;;2.95;;
45909;SDS011;31622;55.416;37.840;2022-12-07T07:08:07;8.77;;;2.78;;
45909;SDS011;31622;55.416;37.840;2022-12-07T07:10:33;5.22;;;2.92;;
45909;SDS011;31622;55.416;37.840;2022-12-07T07:12:59;5.05;;;2.80;;
45909;SDS011;31622;55.416;37.840;2022-12-07T07:15:24;6.88;;;2.65;;
45909;SDS011;31622;55.416;37.840;2022-12-07T07:17:50;5.70;;;2.90;;
45909;SDS011;31622;55.416;37.840;2022-12-07T07:20:16;4.35;;;2.47;;
45909;SDS011;31622;55.416;37.840;2022-12-07T07:22:41;4.38;;;2.20;;
45909;SDS011;31622;55.416;37.840;2022-12-07T07:25:07;6.45;;;2.70;;
45909;SDS011;31622;55.416;37.840;2022-12-07T07:27:33;3.22;;;2.00;;
45909;SDS011;31622;55.416;37.840;2022-12-07T07:29:58;4.10;;;2.22;;
45909;SDS011;31622;55.416;37.840;2022-12-07T07:32:24;4.20;;;2.65;;
45909;SDS011;31622;55.416;37.840;2022-12-07T07:34:50;3.55;;;1.92;;
45909;SDS011;31622;55.416;37.840;2022-12-07T07:37:15;5.05;;;2.65;;
45909;SDS011;31622;55.416;37.840;2022-12-07T07:39:41;3.10;;;1.95;;
45909;SDS011;31622;55.416;37.840;2022-12-07T07:42:07;4.05;;;2.40;;
45909;SDS011;31622;55.416;37.840;2022-12-07T07:44:33;3.83;;;2.30;;
45909;SDS011;31622;55.416;37.840;2022-12-07T07:46:59;4.32;;;2.20;;
45909;SDS011;31622;55.416;37.840;2022-12-07T07:49:25;3.40;;;2.00;;
45909;SDS011;31622;55.416;37.840;2022-12-07T07:51:51;6.63;;;2.25;;
45909;SDS011;31622;55.416;37.840;2022-12-07T07:54:17;4.60;;;1.63;;
45909;SDS011;31622;55.416;37.840;2022-12-07T07:56:42;7.32;;;1.92;;
45909;SDS011;31622;55.416;37.840;2022-12-07T07:59:08;3.10;;;1.80;;
45909;SDS011;31622;55.416;37.840;2022-12-07T08:01:33;27.17;;;4.30;;
45909;SDS011;31622;55.416;37.840;2022-12-07T08:04:00;11.75;;;2.33;;
45909;SDS011;31622;55.416;37.840;2022-12-07T08:06:25;9.13;;;2.05;;
45909;SDS011;31622;55.416;37.840;2022-12-07T08:08:51;6.53;;;2.25;;
45909;SDS011;31622;55.416;37.840;2022-12-07T08:11:17;6.10;;;2.13;;
45909;SDS011;31622;55.416;37.840;2022-12-07T08:13:44;10.32;;;2.53;;
45909;SDS011;31622;55.416;37.840;2022-12-07T08:16:11;8.15;;;2.20;;
45909;SDS011;31622;55.416;37.840;2022-12-07T08:18:39;5.18;;;1.95;;
45909;SDS011;31622;55.416;37.840;2022-12-07T08:21:06;7.32;;;2.22;;
45909;SDS011;31622;55.416;37.840;2022-12-07T08:23:32;8.35;;;3.15;;
45909;SDS011;31622;55.416;37.840;2022-12-07T08:26:02;4.25;;;1.63;;
45909;SDS011;31622;55.416;37.840;2022-12-07T08:28:29;3.95;;;2.00;;
45909;SDS011;31622;55.416;37.840;2022-12-07T08:30:58;6.78;;;1.70;;
45909;SDS011;31622;55.416;37.840;2022-12-07T08:33:25;6.47;;;1.98;;
45909;SDS011;31622;55.416;37.840;2022-12-07T08:35:51;3.03;;;1.88;;
45909;SDS011;31622;55.416;37.840;2022-12-07T08:38:17;3.45;;;1.92;;
45909;SDS011;31622;55.416;37.840;2022-12-07T08:40:42;6.13;;;2.00;;
45909;SDS011;31622;55.416;37.840;2022-12-07T08:43:08;4.65;;;1.90;;
45909;SDS011;31622;55.416;37.840;2022-12-07T08:45:34;6.22;;;2.60;;
45909;SDS011;31622;55.416;37.840;2022-12-07T08:48:04;5.72;;;2.28;;
45909;SDS011;31622;55.416;37.840;2022-12-07T08:50:31;4.20;;;2.67;;
45909;SDS011;31622;55.416;37.840;2022-12-07T08:52:58;3.92;;;2.22;;
45909;SDS011;31622;55.416;37.840;2022-12-07T08:55:24;4.47;;;2.33;;
45909;SDS011;31622;55.416;37.840;2022-12-07T08:57:50;5.63;;;2.50;;
45909;SDS011;31622;55.416;37.840;2022-12-07T09:00:16;5.75;;;2.35;;
45909;SDS011;31622;55.416;37.840;2022-12-07T09:02:43;3.95;;;2.30;;
45909;SDS011;31622;55.416;37.840;2022-12-07T09:05:09;3.80;;;2.30;;
45909;SDS011;31622;55.416;37.840;2022-12-07T09:07:35;6.88;;;2.53;;
45909;SDS011;31622;55.416;37.840;2022-12-07T09:10:01;4.53;;;2.80;;
45909;SDS011;31622;55.416;37.840;2022-12-07T09:12:26;5.20;;;2.70;;
45909;SDS011;31622;55.416;37.840;2022-12-07T09:14:52;6.22;;;2.90;;
45909;SDS011;31622;55.416;37.840;2022-12-07T09:17:18;5.75;;;3.05;;
45909;SDS011;31622;55.416;37.840;2022-12-07T09:19:43;9.15;;;3.40;;
45909;SDS011;31622;55.416;37.840;2022-12-07T09:22:09;5.72;;;3.10;;
45909;SDS011;31622;55.416;37.840;2022-12-07T09:24:35;6.85;;;3.10;;
45909;SDS011;31622;55.416;37.840;2022-12-07T09:27:00;8.10;;;2.90;;
45909;SDS011;31622;55.416;37.840;2022-12-07T09:29:26;6.63;;;2.90;;
45909;SDS011;31622;55.416;37.840;2022-12-07T09:31:52;5.55;;;2.58;;
45909;SDS011;31622;55.416;37.840;2022-12-07T09:34:18;6.93;;;2.92;;
45909;SDS011;31622;55.416;37.840;2022-12-07T09:36:44;7.63;;;2.90;;
45909;SDS011;31622;55.416;37.840;2022-12-07T09:39:10;4.32;;;2.50;;
45909;SDS011;31622;55.416;37.840;2022-12-07T09:41:42;6.35;;;2.90;;
45909;SDS011;31622;55.416;37.840;2022-12-07T09:44:12;5.80;;;2.45;;
45909;SDS011;31622;55.416;37.840;2022-12-07T09:46:41;6.30;;;2.20;;
45909;SDS011;31622;55.416;37.840;2022-12-07T09:49:14;4.65;;;2.53;;
45909;SDS011;31622;55.416;37.840;2022-12-07T09:51:42;5.65;;;2.22;;
45909;SDS011;31622;55.416;37.840;2022-12-07T09:54:08;4.82;;;2.17;;
45909;SDS011;31622;55.416;37.840;2022-12-07T09:56:38;4.72;;;2.30;;
45909;SDS011;31622;55.416;37.840;2022-12-07T09:59:04;5.32;;;2.22;;
45909;SDS011;31622;55.416;37.840;2022-12-07T10:01:31;6.78;;;2.38;;
45909;SDS011;31622;55.416;37.840;2022-12-07T10:04:05;3.83;;;1.95;;
45909;SDS011;31622;55.416;37.840;2022-12-07T10:06:38;4.40;;;2.03;;
45909;SDS011;31622;55.416;37.840;2022-12-07T10:09:14;4.05;;;1.98;;
45909;SDS011;31622;55.416;37.840;2022-12-07T10:12:00;2.83;;;1.60;;
45909;SDS011;31622;55.416;37.840;2022-12-07T10:14:28;4.15;;;1.60;;
45909;SDS011;31622;55.416;37.840;2022-12-07T10:16:55;3.88;;;1.90;;
45909;SDS011;31622;55.416;37.840;2022-12-07T10:19:29;39.10;;;3.58;;
45909;SDS011;31622;55.416;37.840;2022-12-07T10:24:38;11.45;;;2.58;;
45909;SDS011;31622;55.416;37.840;2022-12-07T10:27:29;18.30;;;2.60;;
45909;SDS011;31622;55.416;37.840;2022-12-07T10:29:55;13.80;;;3.13;;
45909;SDS011;31622;55.416;37.840;2022-12-07T10:37:46;5.13;;;2.30;;
45909;SDS011;31622;55.416;37.840;2022-12-07T10:43:00;6.85;;;2.30;;
45909;SDS011;31622;55.416;37.840;2022-12-07T10:48:33;3.88;;;1.70;;
45909;SDS011;31622;55.416;37.840;2022-12-07T10:54:12;5.10;;;1.90;;
45909;SDS011;31622;55.416;37.840;2022-12-07T10:59:50;4.03;;;1.83;;
45909;SDS011;31622;55.416;37.840;2022-12-07T11:02:25;3.25;;;1.67;;
45909;SDS011;31622;55.416;37.840;2022-12-07T11:05:04;5.03;;;2.22;;
45909;SDS011;31622;55.416;37.840;2022-12-07T11:08:01;5.80;;;2.10;;
45909;SDS011;31622;55.416;37.840;2022-12-07T11:21:56;3.45;;;2.00;;
45909;SDS011;31622;55.416;37.840;2022-12-07T11:24:25;4.00;;;1.60;;
45909;SDS011;31622;55.416;37.840;2022-12-07T11:30:07;3.08;;;1.98;;
45909;SDS011;31622;55.416;37.840;2022-12-07T11:38:14;3.58;;;2.08;;
45909;SDS011;31622;55.416;37.840;2022-12-07T11:40:45;2.78;;;1.75;;
45909;SDS011;31622;55.416;37.840;2022-12-07T11:43:21;3.50;;;1.85;;
45909;SDS011;31622;55.416;37.840;2022-12-07T11:45:56;4.05;;;1.90;;
45909;SDS011;31622;55.416;37.840;2022-12-07T11:48:38;4.57;;;1.92;;
45909;SDS011;31622;55.416;37.840;2022-12-07T11:51:08;3.00;;;1.75;;
45909;SDS011;31622;55.416;37.840;2022-12-07T11:56:15;4.18;;;2.42;;
45909;SDS011;31622;55.416;37.840;2022-12-07T12:03:52;2.60;;;1.80;;
45909;SDS011;31622;55.416;37.840;2022-12-07T12:06:21;2.78;;;1.85;;
45909;SDS011;31622;55.416;37.840;2022-12-07T12:09:04;3.97;;;1.85;;
45909;SDS011;31622;55.416;37.840;2022-12-07T12:28:05;5.35;;;2.10;;
45909;SDS011;31622;55.416;37.840;2022-12-07T12:30:33;3.42;;;2.00;;
45909;SDS011;31622;55.416;37.840;2022-12-07T12:33:03;3.47;;;2.10;;
45909;SDS011;31622;55.416;37.840;2022-12-07T12:35:37;6.47;;;2.40;;
45909;SDS011;31622;55.416;37.840;2022-12-07T12:40:50;10.30;;;2.03;;
45909;SDS011;31622;55.416;37.840;2022-12-07T12:46:35;7.68;;;2.30;;
45909;SDS011;31622;55.416;37.840;2022-12-07T12:51:49;8.43;;;2.45;;
45909;SDS011;31622;55.416;37.840;2022-12-07T12:54:19;9.73;;;2.15;;
45909;SDS011;31622;55.416;37.840;2022-12-07T12:56:49;12.52;;;2.65;;
45909;SDS011;31622;55.416;37.840;2022-12-07T13:02:24;12.70;;;2.97;;
45909;SDS011;31622;55.416;37.840;2022-12-07T13:15:42;7.60;;;2.22;;
45909;SDS011;31622;55.416;37.840;2022-12-07T13:18:24;8.90;;;2.72;;
45909;SDS011;31622;55.416;37.840;2022-12-07T13:20:54;6.30;;;1.88;;
45909;SDS011;31622;55.416;37.840;2022-12-07T13:26:15;3.40;;;1.98;;
45909;SDS011;31622;55.416;37.840;2022-12-07T13:28:42;3.35;;;1.90;;
45909;SDS011;31622;55.416;37.840;2022-12-07T13:33:52;6.38;;;2.03;;
45909;SDS011;31622;55.416;37.840;2022-12-07T13:36:25;7.25;;;2.28;;
45909;SDS011;31622;55.416;37.840;2022-12-07T13:39:10;7.18;;;2.00;;
45909;SDS011;31622;55.416;37.840;2022-12-07T13:41:41;4.32;;;2.20;;
45909;SDS011;31622;55.416;37.840;2022-12-07T13:44:11;6.72;;;1.92;;
45909;SDS011;31622;55.416;37.840;2022-12-07T13:49:37;5.57;;;1.90;;
45909;SDS011;31622;55.416;37.840;2022-12-07T13:52:23;4.55;;;2.40;;
45909;SDS011;31622;55.416;37.840;2022-12-07T13:57:26;5.15;;;2.47;;
45909;SDS011;31622;55.416;37.840;2022-12-07T13:59:54;3.70;;;2.20;;
45909;SDS011;31622;55.416;37.840;2022-12-07T14:02:25;4.20;;;2.58;;
45909;SDS011;31622;55.416;37.840;2022-12-07T14:05:05;5.45;;;2.33;;
45909;SDS011;31622;55.416;37.840;2022-12-07T14:10:35;5.80;;;2.50;;
45909;SDS011;31622;55.416;37.840;2022-12-07T14:13:04;7.10;;;2.90;;
45909;SDS011;31622;55.416;37.840;2022-12-07T14:15:53;5.65;;;2.65;;
45909;SDS011;31622;55.416;37.840;2022-12-07T14:18:29;7.47;;;2.88;;
45909;SDS011;31622;55.416;37.840;2022-12-07T14:23:35;5.35;;;2.63;;
45909;SDS011;31622;55.416;37.840;2022-12-07T14:26:20;5.00;;;2.50;;
45909;SDS011;31622;55.416;37.840;2022-12-07T14:28:46;4.97;;;2.63;;
45909;SDS011;31622;55.416;37.840;2022-12-07T14:31:13;4.05;;;2.50;;
45909;SDS011;31622;55.416;37.840;2022-12-07T14:33:40;5.13;;;2.42;;
45909;SDS011;31622;55.416;37.840;2022-12-07T14:36:12;5.97;;;2.60;;
45909;SDS011;31622;55.416;37.840;2022-12-07T14:38:39;5.00;;;2.40;;
45909;SDS011;31622;55.416;37.840;2022-12-07T14:41:15;3.70;;;2.22;;
45909;SDS011;31622;55.416;37.840;2022-12-07T14:44:01;6.22;;;2.47;;
45909;SDS011;31622;55.416;37.840;2022-12-07T14:46:27;2.85;;;2.05;;
45909;SDS011;31622;55.416;37.840;2022-12-07T14:48:53;3.65;;;2.05;;
45909;SDS011;31622;55.416;37.840;2022-12-07T14:51:18;3.38;;;2.17;;
45909;SDS011;31622;55.416;37.840;2022-12-07T14:53:46;3.35;;;2.20;;
45909;SDS011;31622;55.416;37.840;2022-12-07T14:56:14;2.78;;;1.85;;
45909;SDS011;31622;55.416;37.840;2022-12-07T14:58:40;6.45;;;2.53;;
45909;SDS011;31622;55.416;37.840;2022-12-07T15:01:06;4.45;;;2.65;;
45909;SDS011;31622;55.416;37.840;2022-12-07T15:03:31;5.20;;;2.05;;
45909;SDS011;31622;55.416;37.840;2022-12-07T15:05:59;3.72;;;2.40;;
45909;SDS011;31622;55.416;37.840;2022-12-07T15:08:26;4.57;;;2.50;;
45909;SDS011;31622;55.416;37.840;2022-12-07T15:10:52;3.53;;;1.98;;
45909;SDS011;31622;55.416;37.840;2022-12-07T15:13:17;2.78;;;1.92;;
45909;SDS011;31622;55.416;37.840;2022-12-07T15:16:02;3.63;;;2.25;;
45909;SDS011;31622;55.416;37.840;2022-12-07T15:18:27;4.50;;;2.28;;
45909;SDS011;31622;55.416;37.840;2022-12-07T15:20:53;4.50;;;2.47;;
45909;SDS011;31622;55.416;37.840;2022-12-07T15:23:19;4.40;;;2.10;;
45909;SDS011;31622;55.416;37.840;2022-12-07T15:25:46;3.10;;;2.17;;
45909;SDS011;31622;55.416;37.840;2022-12-07T15:28:12;4.45;;;2.67;;
45909;SDS011;31622;55.416;37.840;2022-12-07T15:30:38;5.07;;;2.15;;
45909;SDS011;31622;55.416;37.840;2022-12-07T15:33:05;3.83;;;2.10;;
45909;SDS011;31622;55.416;37.840;2022-12-07T15:35:31;5.25;;;2.22;;
45909;SDS011;31622;55.416;37.840;2022-12-07T15:37:57;3.65;;;1.83;;
45909;SDS011;31622;55.416;37.840;2022-12-07T15:40:22;7.30;;;2.83;;
45909;SDS011;31622;55.416;37.840;2022-12-07T15:42:48;6.68;;;2.30;;
45909;SDS011;31622;55.416;37.840;2022-12-07T15:45:14;3.40;;;2.38;;
45909;SDS011;31622;55.416;37.840;2022-12-07T15:47:41;3.55;;;2.40;;
45909;SDS011;31622;55.416;37.840;2022-12-07T15:50:09;4.13;;;2.35;;
45909;SDS011;31622;55.416;37.840;2022-12-07T15:52:37;4.10;;;2.03;;
45909;SDS011;31622;55.416;37.840;2022-12-07T15:55:03;3.78;;;2.15;;
45909;SDS011;31622;55.416;37.840;2022-12-07T15:57:29;3.25;;;1.83;;
45909;SDS011;31622;55.416;37.840;2022-12-07T15:59:55;4.50;;;2.40;;
45909;SDS011;31622;55.416;37.840;2022-12-07T16:02:21;4.43;;;2.40;;
45909;SDS011;31622;55.416;37.840;2022-12-07T16:04:47;4.75;;;1.95;;
45909;SDS011;31622;55.416;37.840;2022-12-07T16:07:13;5.70;;;2.42;;
45909;SDS011;31622;55.416;37.840;2022-12-07T16:09:41;5.05;;;2.10;;
45909;SDS011;31622;55.416;37.840;2022-12-07T16:12:07;4.15;;;2.13;;
45909;SDS011;31622;55.416;37.840;2022-12-07T16:14:33;2.90;;;1.92;;
45909;SDS011;31622;55.416;37.840;2022-12-07T16:16:59;3.97;;;2.00;;
45909;SDS011;31622;55.416;37.840;2022-12-07T16:19:24;4.10;;;1.98;;
45909;SDS011;31622;55.416;37.840;2022-12-07T16:21:50;4.72;;;2.47;;
45909;SDS011;31622;55.416;37.840;2022-12-07T16:24:16;7.20;;;2.00;;
45909;SDS011;31622;55.416;37.840;2022-12-07T16:26:42;6.50;;;2.35;;
45909;SDS011;31622;55.416;37.840;2022-12-07T16:29:12;3.35;;;2.00;;
45909;SDS011;31622;55.416;37.840;2022-12-07T16:31:38;4.53;;;2.00;;
45909;SDS011;31622;55.416;37.840;2022-12-07T16:34:04;5.30;;;2.38;;
45909;SDS011;31622;55.416;37.840;2022-12-07T16:36:29;2.88;;;1.92;;
45909;SDS011;31622;55.416;37.840;2022-12-07T16:38:55;4.35;;;2.15;;
45909;SDS011;31622;55.416;37.840;2022-12-07T16:41:23;5.05;;;2.55;;
45909;SDS011;31622;55.416;37.840;2022-12-07T16:43:49;6.07;;;2.15;;
45909;SDS011;31622;55.416;37.840;2022-12-07T16:46:15;4.15;;;1.80;;
45909;SDS011;31622;55.416;37.840;2022-12-07T16:48:41;2.97;;;1.73;;
45909;SDS011;31622;55.416;37.840;2022-12-07T16:51:07;3.72;;;2.20;;
45909;SDS011;31622;55.416;37.840;2022-12-07T16:53:34;3.25;;;2.05;;
45909;SDS011;31622;55.416;37.840;2022-12-07T16:56:00;3.35;;;2.00;;